Time;durP1;ratioP1;P1;durP2;ratioP2;P2;SDS_P1;SDS_P2;PMS_P1;PMS_P2;Temp;Humidity;BMP_temperature;BMP_pressure;BME280_temperature;BME280_humidity;BME280_pressure;Samples;Min_cycle;Max_cycle;Signal;HPM_P1;HPM_P2
2021/11/03 00:01:56;;;;;;;;;;;5.30;99.90;;;;;;5029340;28;19928;-76
2021/11/03 00:04:21;;;;;;;;;;;5.30;99.90;;;;;;5030896;28;20045;-76
2021/11/03 00:06:47;;;;;;;;;;;5.30;99.90;;;;;;5032692;28;19924;-76
2021/11/03 00:09:12;;;;;;;;;;;5.30;99.90;;;;;;5034427;28;20411;-76
2021/11/03 00:11:38;;;;;;;;;;;5.30;99.90;;;;;;5034370;28;20289;-76
2021/11/03 00:14:04;;;;;;;;;;;5.30;99.90;;;;;;5032546;28;20379;-76
2021/11/03 00:16:30;;;;;;;;;;;5.30;99.90;;;;;;5033082;28;20003;-76
2021/11/03 00:18:56;;;;;;;;;;;5.20;99.90;;;;;;5031896;28;20008;-76
2021/11/03 00:21:21;;;;;;;;;;;5.20;99.90;;;;;;5032778;28;19917;-76
2021/11/03 00:23:47;;;;;;;;;;;5.20;99.90;;;;;;5032914;28;19921;-76
2021/11/03 00:26:13;;;;;;;;;;;5.20;99.90;;;;;;5032396;28;20255;-76
2021/11/03 00:28:38;;;;;;;;;;;5.10;99.90;;;;;;5030458;28;19975;-76
2021/11/03 00:31:04;;;;;;;;;;;5.10;99.90;;;;;;5032166;28;19913;-76
2021/11/03 00:33:31;;;;;;;;;;;5.00;99.90;;;;;;5032374;28;20020;-76
2021/11/03 00:35:57;;;;;;;;;;;5.00;99.90;;;;;;5033928;28;19921;-76
2021/11/03 00:38:23;;;;;;;;;;;5.00;99.90;;;;;;5032613;28;20039;-76
2021/11/03 00:40:49;;;;;;;;;;;5.00;99.90;;;;;;5032659;28;20012;-76
2021/11/03 00:43:15;;;;;;;;;;;5.00;99.90;;;;;;5034070;28;19924;-76
2021/11/03 00:45:40;;;;;;;;;;;4.90;99.90;;;;;;5032020;28;19913;-77
2021/11/03 00:48:06;;;;;;;;;;;4.90;99.90;;;;;;5040196;28;19917;-77
2021/11/03 00:50:32;;;;;;;;;;;4.90;99.90;;;;;;5034824;28;19917;-76
2021/11/03 00:52:57;;;;;;;;;;;4.90;99.90;;;;;;5032926;28;20224;-77
2021/11/03 00:55:23;;;;;;;;;;;4.90;99.90;;;;;;5043142;28;19933;-76
2021/11/03 00:57:48;;;;;;;;;;;4.90;99.90;;;;;;5047742;28;19917;-76
2021/11/03 01:00:15;;;;;;;;;;;4.90;99.90;;;;;;5031706;28;19967;-76
2021/11/03 01:02:41;;;;;;;;;;;5.00;99.90;;;;;;5033416;28;19921;-76
2021/11/03 01:05:07;;;;;;;;;;;5.10;99.90;;;;;;5033664;28;19970;-76
2021/11/03 01:07:33;;;;;;;;;;;5.20;99.90;;;;;;5032123;28;19936;-76
2021/11/03 01:09:58;;;;;;;;;;;5.20;99.90;;;;;;5032910;28;20293;-76
2021/11/03 01:12:24;;;;;;;;;;;5.40;99.90;;;;;;5031420;28;19913;-76
2021/11/03 01:14:50;;;;;;;;;;;5.50;99.90;;;;;;5030960;28;19917;-76
2021/11/03 01:17:15;;;;;;;;;;;5.60;99.90;;;;;;5030636;28;19913;-76
2021/11/03 01:19:41;;;;;;;;;;;5.60;99.90;;;;;;5031766;28;19925;-76
2021/11/03 01:22:07;;;;;;;;;;;5.70;99.90;;;;;;5038031;28;19917;-76
2021/11/03 01:24:33;;;;;;;;;;;5.80;99.90;;;;;;5032878;28;19921;-76
2021/11/03 01:26:58;;;;;;;;;;;5.80;99.90;;;;;;5031662;28;20018;-76
2021/11/03 01:29:24;;;;;;;;;;;5.90;99.90;;;;;;5031217;28;19963;-76
2021/11/03 01:31:50;;;;;;;;;;;5.90;99.90;;;;;;5032968;28;19917;-76
2021/11/03 01:34:15;;;;;;;;;;;5.90;99.90;;;;;;5031590;28;19920;-76
2021/11/03 01:36:41;;;;;;;;;;;5.90;99.90;;;;;;5027632;28;19920;-76
2021/11/03 01:39:07;;;;;;;;;;;5.90;99.90;;;;;;5028818;28;20374;-76
2021/11/03 01:41:33;;;;;;;;;;;5.90;99.90;;;;;;5032657;28;19921;-76
2021/11/03 01:44:05;;;;;;;;;;;5.90;99.90;;;;;;5031127;28;19917;-76
2021/11/03 01:46:30;;;;;;;;;;;5.90;99.90;;;;;;5030269;28;19953;-76
2021/11/03 01:48:58;;;;;;;;;;;5.90;99.90;;;;;;5022675;28;19960;-76
2021/11/03 01:51:49;;;;;;;;;;;6.00;99.90;;;;;;5032203;28;19914;-76
2021/11/03 01:54:17;;;;;;;;;;;6.10;99.90;;;;;;5026300;28;20276;-76
2021/11/03 01:56:43;;;;;;;;;;;6.10;99.90;;;;;;5048276;28;20008;-77
2021/11/03 01:59:11;;;;;;;;;;;6.20;99.90;;;;;;5031133;28;20283;-76
2021/11/03 02:01:37;;;;;;;;;;;6.10;99.90;;;;;;5039497;28;20060;-76
2021/11/03 02:04:04;;;;;;;;;;;6.10;99.90;;;;;;5028288;28;20015;-77
2021/11/03 02:06:29;;;;;;;;;;;6.10;99.90;;;;;;5045334;28;20043;-75
2021/11/03 02:08:56;;;;;;;;;;;6.10;99.90;;;;;;5025687;28;20012;-76
2021/11/03 02:11:23;;;;;;;;;;;6.10;99.90;;;;;;5027745;28;19916;-76
2021/11/03 02:13:48;;;;;;;;;;;6.10;99.90;;;;;;5027431;28;20312;-76
2021/11/03 02:16:15;;;;;;;;;;;6.10;99.90;;;;;;5027652;28;19960;-76
2021/11/03 02:18:41;;;;;;;;;;;6.00;99.90;;;;;;5031994;28;19921;-76
2021/11/03 02:21:08;;;;;;;;;;;6.00;99.90;;;;;;5035957;28;19917;-76
2021/11/03 02:23:40;;;;;;;;;;;6.00;99.90;;;;;;5028675;28;19921;-76
2021/11/03 02:26:09;;;;;;;;;;;6.00;99.90;;;;;;5026828;28;20509;-76
2021/11/03 02:28:35;;;;;;;;;;;6.00;99.90;;;;;;5030262;28;19952;-76
2021/11/03 02:31:01;;;;;;;;;;;6.00;99.90;;;;;;5032289;28;20269;-76
2021/11/03 02:33:27;;;;;;;;;;;5.90;99.90;;;;;;5030245;28;19929;-76
2021/11/03 02:35:57;;;;;;;;;;;5.90;99.90;;;;;;5027617;28;19928;-76
2021/11/03 02:38:28;;;;;;;;;;;5.90;99.90;;;;;;5032082;28;19940;-77
2021/11/03 02:40:57;;;;;;;;;;;5.80;99.90;;;;;;5031411;28;19913;-75
2021/11/03 02:43:28;;;;;;;;;;;5.70;99.90;;;;;;5030557;28;21248;-76
2021/11/03 02:45:55;;;;;;;;;;;5.70;99.90;;;;;;5033025;28;19913;-76
2021/11/03 02:48:22;;;;;;;;;;;5.70;99.90;;;;;;5035284;28;19975;-76
2021/11/03 02:51:07;;;;;;;;;;;5.60;99.90;;;;;;5034019;28;19978;-76
2021/11/03 02:53:35;;;;;;;;;;;5.50;99.90;;;;;;5034732;28;20368;-76
2021/11/03 02:56:00;;;;;;;;;;;5.50;99.90;;;;;;5047667;28;19980;-76
2021/11/03 02:58:26;;;;;;;;;;;5.50;99.90;;;;;;5035350;28;19933;-76
2021/11/03 03:00:53;;;;;;;;;;;5.50;99.90;;;;;;5036479;28;19917;-76
2021/11/03 03:03:18;;;;;;;;;;;5.40;99.90;;;;;;5035949;28;19920;-76
2021/11/03 03:05:47;;;;;;;;;;;5.40;99.90;;;;;;5030842;28;20311;-76
2021/11/03 03:08:12;;;;;;;;;;;5.30;99.90;;;;;;5047058;28;19999;-76
2021/11/03 03:10:38;;;;;;;;;;;5.20;99.90;;;;;;5032266;28;20008;-76
2021/11/03 03:13:04;;;;;;;;;;;5.20;99.90;;;;;;5031007;28;19913;-76
2021/11/03 03:15:29;;;;;;;;;;;4.90;99.90;;;;;;5031555;28;20291;-76
2021/11/03 03:17:55;;;;;;;;;;;4.80;99.90;;;;;;5035651;28;19927;-76
2021/11/03 03:20:20;;;;;;;;;;;4.80;99.90;;;;;;5031911;28;19925;-77
2021/11/03 03:22:46;;;;;;;;;;;4.70;99.90;;;;;;5032530;28;20291;-76
2021/11/03 03:25:11;;;;;;;;;;;4.70;99.90;;;;;;5050830;28;19928;-76
2021/11/03 03:27:37;;;;;;;;;;;4.60;99.90;;;;;;5041672;28;19917;-77
2021/11/03 03:30:03;;;;;;;;;;;4.60;99.90;;;;;;5035013;28;19913;-76
2021/11/03 03:32:29;;;;;;;;;;;4.60;99.90;;;;;;5033646;28;19948;-76
2021/11/03 03:34:54;;;;;;;;;;;4.50;99.90;;;;;;5035116;28;19956;-75
2021/11/03 03:37:20;;;;;;;;;;;4.60;99.90;;;;;;5034965;28;19917;-76
2021/11/03 03:39:46;;;;;;;;;;;4.50;99.90;;;;;;5034645;28;19949;-76
2021/11/03 03:42:14;;;;;;;;;;;4.50;99.90;;;;;;5033946;28;19917;-76
2021/11/03 03:44:41;;;;;;;;;;;4.40;99.90;;;;;;5038882;28;19914;-76
2021/11/03 03:47:07;;;;;;;;;;;4.40;99.90;;;;;;5034294;28;19917;-76
2021/11/03 03:49:34;;;;;;;;;;;4.30;99.90;;;;;;5029702;28;21005;-75
2021/11/03 03:52:00;;;;;;;;;;;4.30;99.90;;;;;;5029538;28;20194;-75
2021/11/03 03:54:26;;;;;;;;;;;4.30;99.90;;;;;;5032428;28;19945;-76
2021/11/03 03:56:52;;;;;;;;;;;4.20;99.90;;;;;;5035074;28;19917;-76
2021/11/03 03:59:18;;;;;;;;;;;4.20;99.90;;;;;;5033689;28;19925;-75
2021/11/03 04:01:43;;;;;;;;;;;4.20;99.90;;;;;;5031810;28;19928;-76
2021/11/03 04:04:09;;;;;;;;;;;4.20;99.90;;;;;;5027077;28;20241;-76
2021/11/03 04:06:35;;;;;;;;;;;4.10;99.90;;;;;;5050428;28;19913;-76
2021/11/03 04:09:01;;;;;;;;;;;4.10;99.90;;;;;;5030002;28;20193;-76
2021/11/03 04:11:26;;;;;;;;;;;4.00;99.90;;;;;;5029759;28;19924;-76
2021/11/03 04:13:52;;;;;;;;;;;4.10;99.90;;;;;;5034750;28;20014;-76
2021/11/03 04:16:17;;;;;;;;;;;4.10;99.90;;;;;;5032515;28;19977;-76
2021/11/03 04:18:43;;;;;;;;;;;4.00;99.90;;;;;;5032836;28;19921;-76
2021/11/03 04:21:09;;;;;;;;;;;4.00;99.90;;;;;;5033726;28;20301;-76
2021/11/03 04:23:36;;;;;;;;;;;3.90;99.90;;;;;;5045353;28;19959;-76
2021/11/03 04:26:02;;;;;;;;;;;3.90;99.90;;;;;;5029832;28;19917;-76
2021/11/03 04:28:27;;;;;;;;;;;3.80;99.90;;;;;;5032671;28;19913;-76
2021/11/03 04:30:53;;;;;;;;;;;3.90;99.90;;;;;;5032431;28;20370;-76
2021/11/03 04:33:19;;;;;;;;;;;3.80;99.90;;;;;;5034158;28;19919;-76
2021/11/03 04:35:47;;;;;;;;;;;3.80;99.90;;;;;;5030317;28;19960;-76
2021/11/03 04:38:12;;;;;;;;;;;3.80;99.90;;;;;;5031804;28;19970;-75
2021/11/03 04:40:38;;;;;;;;;;;3.80;99.90;;;;;;5046517;28;19917;-76
2021/11/03 04:43:03;;;;;;;;;;;3.90;99.90;;;;;;5030158;28;19925;-76
2021/11/03 04:45:29;;;;;;;;;;;3.90;99.90;;;;;;5031522;28;20728;-76
2021/11/03 04:47:55;;;;;;;;;;;3.90;99.90;;;;;;5031010;28;19913;-77
2021/11/03 04:50:25;;;;;;;;;;;4.00;99.90;;;;;;5023381;28;19928;-76
2021/11/03 04:52:51;;;;;;;;;;;4.00;99.90;;;;;;5026490;28;19917;-76
2021/11/03 04:55:17;;;;;;;;;;;4.00;99.90;;;;;;5046000;28;19928;-76
2021/11/03 04:57:42;;;;;;;;;;;4.00;99.90;;;;;;5033658;28;19920;-76
2021/11/03 05:00:10;;;;;;;;;;;4.00;99.90;;;;;;5031603;28;20008;-77
2021/11/03 05:02:36;;;;;;;;;;;4.00;99.90;;;;;;5034815;28;19913;-76
2021/11/03 05:05:02;;;;;;;;;;;4.00;99.90;;;;;;5029342;28;19921;-76
2021/11/03 05:07:27;;;;;;;;;;;4.00;99.90;;;;;;5042702;28;19920;-76
2021/11/03 05:09:53;;;;;;;;;;;4.00;99.90;;;;;;5033795;28;20404;-75
2021/11/03 05:12:19;;;;;;;;;;;3.90;99.90;;;;;;5028893;28;20006;-75
2021/11/03 05:14:44;;;;;;;;;;;3.90;99.90;;;;;;5030497;28;20375;-76
2021/11/03 05:17:10;;;;;;;;;;;3.90;99.90;;;;;;5031688;28;19926;-76
2021/11/03 05:19:36;;;;;;;;;;;3.90;99.90;;;;;;5031333;28;19921;-76
2021/11/03 05:22:03;;;;;;;;;;;3.90;99.90;;;;;;5034112;28;19917;-76
2021/11/03 05:24:29;;;;;;;;;;;3.90;99.90;;;;;;5030358;28;19917;-76
2021/11/03 05:26:55;;;;;;;;;;;3.80;99.90;;;;;;5028948;28;19925;-76
2021/11/03 05:29:21;;;;;;;;;;;3.80;99.90;;;;;;5026704;28;19961;-76
2021/11/03 05:31:47;;;;;;;;;;;3.70;99.90;;;;;;5032720;28;19917;-76
2021/11/03 05:34:13;;;;;;;;;;;3.70;99.90;;;;;;5030188;28;20219;-76
2021/11/03 05:36:39;;;;;;;;;;;3.60;99.90;;;;;;5030913;28;19913;-75
2021/11/03 05:39:07;;;;;;;;;;;3.60;99.90;;;;;;5031775;28;19917;-75
2021/11/03 05:41:37;;;;;;;;;;;3.60;99.90;;;;;;5032569;28;19917;-75
2021/11/03 05:44:05;;;;;;;;;;;3.60;99.90;;;;;;5032975;28;19949;-76
2021/11/03 05:46:32;;;;;;;;;;;3.60;99.90;;;;;;5032376;28;19917;-76
2021/11/03 05:48:58;;;;;;;;;;;3.60;99.90;;;;;;5032753;28;19913;-76
2021/11/03 05:51:24;;;;;;;;;;;3.60;99.90;;;;;;5031447;28;19917;-75
2021/11/03 05:53:50;;;;;;;;;;;3.60;99.90;;;;;;5028324;28;19997;-75
2021/11/03 05:56:16;;;;;;;;;;;3.50;99.90;;;;;;5027977;28;19925;-75
2021/11/03 05:58:42;;;;;;;;;;;3.50;99.90;;;;;;5030822;28;19933;-75
2021/11/03 06:01:07;;;;;;;;;;;3.50;99.90;;;;;;5033341;28;19963;-75
2021/11/03 06:03:33;;;;;;;;;;;3.50;99.90;;;;;;5033369;28;19987;-75
2021/11/03 06:05:59;;;;;;;;;;;3.50;99.90;;;;;;5033156;28;19921;-76
2021/11/03 06:08:24;;;;;;;;;;;3.40;99.90;;;;;;5030388;28;19925;-75
2021/11/03 06:10:51;;;;;;;;;;;3.50;99.90;;;;;;5032747;28;19917;-75
2021/11/03 06:13:19;;;;;;;;;;;3.40;99.90;;;;;;5032115;28;19917;-75
2021/11/03 06:15:44;;;;;;;;;;;3.50;99.90;;;;;;5033663;28;19959;-75
2021/11/03 06:18:10;;;;;;;;;;;3.40;99.90;;;;;;5035335;28;19917;-75
2021/11/03 06:20:36;;;;;;;;;;;3.40;99.90;;;;;;5036343;28;19919;-75
2021/11/03 06:23:02;;;;;;;;;;;3.40;99.90;;;;;;5032782;28;20361;-75
2021/11/03 06:25:28;;;;;;;;;;;3.40;99.90;;;;;;5032664;28;19913;-75
2021/11/03 06:27:55;;;;;;;;;;;3.40;99.90;;;;;;5035745;28;20012;-75
2021/11/03 06:30:22;;;;;;;;;;;3.30;99.90;;;;;;5035201;28;19917;-75
2021/11/03 06:32:48;;;;;;;;;;;3.40;99.90;;;;;;5036030;28;19967;-75
2021/11/03 06:35:14;;;;;;;;;;;3.40;99.90;;;;;;5033147;28;19925;-76
2021/11/03 06:37:40;;;;;;;;;;;3.40;99.90;;;;;;5031439;28;19913;-75
2021/11/03 06:40:06;;;;;;;;;;;3.40;99.90;;;;;;5033870;28;19924;-75
2021/11/03 06:42:32;;;;;;;;;;;3.40;99.90;;;;;;5035376;28;20402;-75
2021/11/03 06:44:57;;;;;;;;;;;3.50;99.90;;;;;;5033702;28;19917;-75
2021/11/03 06:47:23;;;;;;;;;;;3.50;99.90;;;;;;5045415;28;19913;-76
2021/11/03 06:49:49;;;;;;;;;;;3.40;99.90;;;;;;5033459;28;19913;-76
2021/11/03 06:52:14;;;;;;;;;;;3.40;99.90;;;;;;5035861;28;19921;-76
2021/11/03 06:54:40;;;;;;;;;;;3.40;99.90;;;;;;5035815;28;20491;-76
2021/11/03 06:57:06;;;;;;;;;;;3.50;99.90;;;;;;5034483;28;20212;-75
2021/11/03 06:59:31;;;;;;;;;;;3.40;99.90;;;;;;5034763;28;19972;-75
2021/11/03 07:01:57;;;;;;;;;;;3.40;99.90;;;;;;5032225;28;20228;-76
2021/11/03 07:04:23;;;;;;;;;;;3.40;99.90;;;;;;5029220;28;19952;-76
2021/11/03 07:06:49;;;;;;;;;;;3.40;99.90;;;;;;5033266;28;19976;-76
2021/11/03 07:09:14;;;;;;;;;;;3.40;99.90;;;;;;5032348;28;20287;-76
2021/11/03 07:11:40;;;;;;;;;;;3.40;99.90;;;;;;5031831;28;20052;-75
2021/11/03 07:14:06;;;;;;;;;;;3.50;99.90;;;;;;5036176;28;19921;-75
2021/11/03 07:16:32;;;;;;;;;;;3.50;99.90;;;;;;5032654;28;19939;-75
2021/11/03 07:19:07;;;;;;;;;;;3.50;99.90;;;;;;5032662;28;19918;-75
2021/11/03 07:21:33;;;;;;;;;;;3.40;99.90;;;;;;5034521;28;19926;-75
2021/11/03 07:23:58;;;;;;;;;;;3.50;99.90;;;;;;5035410;28;19924;-76
2021/11/03 07:26:24;;;;;;;;;;;3.50;99.90;;;;;;5035715;28;20063;-75
2021/11/03 07:28:50;;;;;;;;;;;3.60;99.90;;;;;;5031970;28;19916;-75
2021/11/03 07:31:16;;;;;;;;;;;3.50;99.90;;;;;;5025796;28;19913;-76
2021/11/03 07:33:42;;;;;;;;;;;3.50;99.90;;;;;;5034254;28;19952;-76
2021/11/03 07:36:10;;;;;;;;;;;3.50;99.90;;;;;;5035082;28;19913;-75
2021/11/03 07:38:36;;;;;;;;;;;3.50;99.90;;;;;;5036096;28;19917;-75
2021/11/03 07:41:02;;;;;;;;;;;3.50;99.90;;;;;;5033172;28;19917;-75
2021/11/03 07:43:28;;;;;;;;;;;3.50;99.90;;;;;;5032797;28;20319;-75
2021/11/03 07:45:54;;;;;;;;;;;3.50;99.90;;;;;;5030672;28;19924;-75
2021/11/03 07:48:21;;;;;;;;;;;3.50;99.90;;;;;;5034106;28;19921;-75
2021/11/03 07:50:58;;;;;;;;;;;3.50;99.90;;;;;;5031849;28;20308;-75
2021/11/03 07:53:24;;;;;;;;;;;3.50;99.90;;;;;;5034224;28;19917;-75
2021/11/03 07:55:51;;;;;;;;;;;3.50;99.90;;;;;;5033847;28;20015;-75
2021/11/03 07:58:19;;;;;;;;;;;3.50;99.90;;;;;;5032824;28;19921;-75
2021/11/03 08:00:44;;;;;;;;;;;3.50;99.90;;;;;;5028623;28;19924;-76
2021/11/03 08:03:10;;;;;;;;;;;3.60;99.90;;;;;;5032025;28;20279;-75
2021/11/03 08:05:36;;;;;;;;;;;3.50;99.90;;;;;;5034071;28;19913;-75
2021/11/03 08:08:07;;;;;;;;;;;3.50;99.90;;;;;;5032960;28;19967;-75
2021/11/03 08:10:33;;;;;;;;;;;3.50;99.90;;;;;;5030607;28;20267;-75
2021/11/03 08:12:59;;;;;;;;;;;3.40;99.90;;;;;;5025273;28;19921;-75
2021/11/03 08:15:25;;;;;;;;;;;3.60;99.90;;;;;;5031325;28;20368;-77
2021/11/03 08:17:52;;;;;;;;;;;3.60;99.90;;;;;;5032445;28;20032;-76
2021/11/03 08:20:20;;;;;;;;;;;3.70;99.90;;;;;;5034035;28;19925;-75
2021/11/03 08:22:47;;;;;;;;;;;3.80;99.90;;;;;;5028611;28;19929;-75
2021/11/03 08:25:12;;;;;;;;;;;3.80;99.90;;;;;;5032720;28;19917;-75
2021/11/03 08:27:40;;;;;;;;;;;3.90;99.90;;;;;;5032338;28;20312;-76
2021/11/03 08:30:07;;;;;;;;;;;3.90;99.90;;;;;;5031873;28;19948;-76
2021/11/03 08:32:36;;;;;;;;;;;3.90;99.90;;;;;;5032437;28;20198;-75
2021/11/03 08:35:02;;;;;;;;;;;3.90;99.90;;;;;;5031615;28;19923;-75
2021/11/03 08:37:30;;;;;;;;;;;3.90;99.90;;;;;;5032947;28;19913;-76
2021/11/03 08:39:58;;;;;;;;;;;3.90;99.90;;;;;;5027795;28;20234;-75
2021/11/03 08:42:23;;;;;;;;;;;3.90;99.90;;;;;;5031162;28;19925;-76
2021/11/03 08:44:53;;;;;;;;;;;4.00;99.90;;;;;;5031262;28;20285;-76
2021/11/03 08:47:19;;;;;;;;;;;4.00;99.90;;;;;;5032238;28;19921;-76
2021/11/03 08:49:44;;;;;;;;;;;4.10;99.90;;;;;;5030984;28;19921;-76
2021/11/03 08:52:10;;;;;;;;;;;4.10;99.90;;;;;;5031504;28;19925;-77
2021/11/03 08:54:37;;;;;;;;;;;4.20;99.90;;;;;;5035591;28;19988;-76
2021/11/03 08:57:02;;;;;;;;;;;4.30;99.90;;;;;;5032811;28;19921;-76
2021/11/03 08:59:28;;;;;;;;;;;4.50;99.90;;;;;;5031806;28;19947;-76
2021/11/03 09:01:54;;;;;;;;;;;4.50;99.90;;;;;;5015199;28;20982;-76
2021/11/03 09:04:19;;;;;;;;;;;4.60;99.90;;;;;;5033254;28;19920;-76
2021/11/03 09:06:45;;;;;;;;;;;4.60;99.90;;;;;;5032043;28;19921;-76
2021/11/03 09:09:11;;;;;;;;;;;4.70;99.90;;;;;;5030710;28;19917;-76
2021/11/03 09:11:36;;;;;;;;;;;4.70;99.90;;;;;;5028506;28;20335;-76
2021/11/03 09:14:02;;;;;;;;;;;4.70;99.90;;;;;;5029989;28;19913;-76
2021/11/03 09:16:28;;;;;;;;;;;4.70;99.90;;;;;;5032288;28;19913;-76
2021/11/03 09:18:53;;;;;;;;;;;4.80;99.90;;;;;;5031780;28;19941;-76
2021/11/03 09:21:21;;;;;;;;;;;4.90;99.90;;;;;;5033197;28;20008;-76
2021/11/03 09:23:47;;;;;;;;;;;5.00;99.90;;;;;;5033271;28;19924;-76
2021/11/03 09:26:14;;;;;;;;;;;5.00;99.90;;;;;;5031032;28;20416;-80
2021/11/03 09:28:40;;;;;;;;;;;5.10;99.90;;;;;;5032990;28;19913;-76
2021/11/03 09:31:08;;;;;;;;;;;5.20;99.90;;;;;;5030357;28;19921;-77
2021/11/03 09:33:35;;;;;;;;;;;5.30;99.90;;;;;;5029631;28;19913;-77
2021/11/03 09:36:01;;;;;;;;;;;5.40;99.90;;;;;;5032016;28;19964;-77
2021/11/03 09:38:27;;;;;;;;;;;5.50;99.90;;;;;;5032464;28;20022;-77
2021/11/03 09:40:56;;;;;;;;;;;5.60;99.90;;;;;;5032354;28;19921;-80
2021/11/03 09:43:26;;;;;;;;;;;5.70;99.90;;;;;;5033028;28;19932;-76
2021/11/03 09:45:52;;;;;;;;;;;5.80;99.90;;;;;;5031529;28;20286;-77
2021/11/03 09:48:24;;;;;;;;;;;5.80;99.90;;;;;;5031673;28;20059;-77
2021/11/03 09:50:52;;;;;;;;;;;5.90;99.90;;;;;;5030793;28;20320;-77
2021/11/03 09:53:20;;;;;;;;;;;6.00;99.90;;;;;;5032320;28;19929;-77
2021/11/03 09:55:46;;;;;;;;;;;6.10;99.90;;;;;;5029449;28;19937;-77
2021/11/03 09:58:22;;;;;;;;;;;6.20;99.90;;;;;;5038532;28;20308;-77
2021/11/03 10:00:52;;;;;;;;;;;6.40;99.90;;;;;;5031794;28;19929;-77
2021/11/03 10:03:38;;;;;;;;;;;6.60;99.90;;;;;;5031280;28;19921;-77
2021/11/03 10:06:15;;;;;;;;;;;6.80;99.90;;;;;;4985612;28;20320;-77
2021/11/03 10:08:44;;;;;;;;;;;6.90;99.90;;;;;;5031076;28;19913;-77
2021/11/03 10:11:39;;;;;;;;;;;7.00;99.90;;;;;;5031725;28;19920;-85
2021/11/03 10:14:05;;;;;;;;;;;7.10;99.90;;;;;;5021724;28;20224;-77
2021/11/03 10:16:45;;;;;;;;;;;7.20;99.90;;;;;;5029592;28;19917;-77
2021/11/03 10:19:13;;;;;;;;;;;7.30;99.90;;;;;;5049234;28;19936;-77
2021/11/03 10:21:39;;;;;;;;;;;7.50;99.90;;;;;;5031163;28;20032;-78
2021/11/03 10:24:21;;;;;;;;;;;7.50;99.90;;;;;;5031153;28;20348;-78
2021/11/03 10:26:46;;;;;;;;;;;7.60;99.90;;;;;;5029961;28;20233;-78
2021/11/03 10:29:12;;;;;;;;;;;7.70;99.90;;;;;;5030194;28;20380;-79
2021/11/03 10:31:43;;;;;;;;;;;7.80;99.90;;;;;;5030889;28;20024;-78
2021/11/03 10:34:14;;;;;;;;;;;8.00;99.90;;;;;;5033257;28;19952;-78
2021/11/03 10:36:42;;;;;;;;;;;8.10;99.90;;;;;;5031041;28;20000;-78
2021/11/03 10:39:12;;;;;;;;;;;8.20;99.90;;;;;;5030666;28;19921;-79
2021/11/03 10:41:38;;;;;;;;;;;8.30;99.90;;;;;;5029793;28;19917;-79
2021/11/03 10:44:19;;;;;;;;;;;8.30;99.90;;;;;;5031814;28;20243;-79
2021/11/03 10:46:53;;;;;;;;;;;8.30;99.90;;;;;;5031264;28;19952;-78
2021/11/03 10:49:24;;;;;;;;;;;8.40;99.90;;;;;;5030904;28;19917;-80
2021/11/03 10:51:57;;;;;;;;;;;8.40;99.90;;;;;;5029943;28;19917;-79
2021/11/03 10:54:23;;;;;;;;;;;8.40;99.90;;;;;;5030105;28;19967;-79
2021/11/03 10:56:55;;;;;;;;;;;8.50;99.90;;;;;;5031821;28;19921;-78
2021/11/03 10:59:20;;;;;;;;;;;8.50;99.90;;;;;;5031204;28;20287;-79
2021/11/03 11:01:47;;;;;;;;;;;8.60;99.90;;;;;;5030428;28;19917;-79
2021/11/03 11:04:20;;;;;;;;;;;8.60;99.90;;;;;;5033465;28;19944;-79
2021/11/03 11:06:49;;;;;;;;;;;8.60;99.90;;;;;;5034337;28;19913;-79
2021/11/03 11:09:36;;;;;;;;;;;8.70;99.90;;;;;;5046071;28;20027;-79
2021/11/03 11:12:22;;;;;;;;;;;8.70;99.90;;;;;;5034044;28;19927;-79
2021/11/03 11:14:49;;;;;;;;;;;8.80;99.90;;;;;;5033447;28;19921;-79
2021/11/03 11:17:20;;;;;;;;;;;9.00;99.90;;;;;;5035702;28;20004;-78
2021/11/03 11:19:46;;;;;;;;;;;9.10;99.90;;;;;;5043731;28;19959;-78
2021/11/03 11:22:15;;;;;;;;;;;9.10;99.90;;;;;;5035136;28;19928;-88
2021/11/03 11:24:54;;;;;;;;;;;9.20;99.90;;;;;;5035850;28;19917;-78
2021/11/03 11:27:29;;;;;;;;;;;9.30;99.90;;;;;;5033449;28;19921;-78
2021/11/03 11:30:15;;;;;;;;;;;9.30;99.90;;;;;;5033594;28;20095;-79
2021/11/03 11:33:03;;;;;;;;;;;9.30;99.90;;;;;;5037071;28;20003;-79
2021/11/03 11:35:28;;;;;;;;;;;9.40;99.90;;;;;;5033694;28;19913;-78
2021/11/03 11:38:13;;;;;;;;;;;9.40;99.90;;;;;;5034126;28;19928;-78
2021/11/03 11:40:49;;;;;;;;;;;9.40;99.90;;;;;;5040915;28;19917;-78
2021/11/03 11:43:37;;;;;;;;;;;9.40;99.90;;;;;;5033366;28;19980;-80
2021/11/03 11:46:09;;;;;;;;;;;9.40;99.90;;;;;;5022006;28;19920;-78
2021/11/03 11:48:39;;;;;;;;;;;9.40;99.90;;;;;;5032419;28;19975;-77
2021/11/03 11:51:25;;;;;;;;;;;9.40;99.90;;;;;;5033168;28;20221;-78
2021/11/03 11:53:50;;;;;;;;;;;9.40;99.90;;;;;;5031452;28;19924;-78
2021/11/03 11:56:23;;;;;;;;;;;9.40;99.90;;;;;;5039589;28;19921;-78
2021/11/03 11:58:53;;;;;;;;;;;9.30;99.90;;;;;;5035000;28;19932;-78
2021/11/03 12:01:27;;;;;;;;;;;9.30;99.90;;;;;;5033244;28;19921;-78
2021/11/03 12:03:54;;;;;;;;;;;9.40;99.90;;;;;;5033137;28;19923;-78
2021/11/03 12:06:19;;;;;;;;;;;9.40;99.90;;;;;;5042313;28;19913;-79
2021/11/03 12:09:00;;;;;;;;;;;9.40;99.90;;;;;;5035141;28;19943;-78
2021/11/03 12:11:27;;;;;;;;;;;9.40;99.90;;;;;;5048615;28;19928;-80
2021/11/03 12:13:56;;;;;;;;;;;9.50;99.90;;;;;;5033462;28;20071;-78
2021/11/03 12:16:22;;;;;;;;;;;9.50;99.90;;;;;;5037711;28;19917;-78
2021/11/03 12:18:50;;;;;;;;;;;9.50;99.90;;;;;;5032274;28;20007;-78
2021/11/03 12:21:25;;;;;;;;;;;9.50;99.90;;;;;;5030390;28;19921;-78
2021/11/03 12:24:06;;;;;;;;;;;9.40;99.90;;;;;;5033394;28;19928;-78
2021/11/03 12:26:31;;;;;;;;;;;9.50;99.90;;;;;;5031992;28;19918;-78
2021/11/03 12:29:00;;;;;;;;;;;9.50;99.90;;;;;;5031618;28;20327;-78
2021/11/03 12:31:25;;;;;;;;;;;9.60;99.90;;;;;;5031950;28;19917;-78
2021/11/03 12:34:03;;;;;;;;;;;9.60;99.90;;;;;;5032672;28;19939;-78
2021/11/03 12:36:30;;;;;;;;;;;9.50;99.90;;;;;;5033564;28;20316;-78
2021/11/03 12:38:57;;;;;;;;;;;9.60;99.90;;;;;;5030463;28;20271;-78
2021/11/03 12:41:27;;;;;;;;;;;9.50;99.90;;;;;;5034112;28;19917;-79
2021/11/03 12:43:56;;;;;;;;;;;9.50;99.90;;;;;;5031653;28;20236;-78
2021/11/03 12:46:22;;;;;;;;;;;9.50;99.90;;;;;;5032612;28;19917;-82
2021/11/03 12:51:21;;;;;;;;;;;9.40;99.90;;;;;;5042043;22;19926;-79
2021/11/03 12:53:53;;;;;;;;;;;9.40;99.90;;;;;;5032899;28;20231;-78
2021/11/03 12:56:20;;;;;;;;;;;9.30;99.90;;;;;;5031010;28;19929;-78
2021/11/03 12:59:02;;;;;;;;;;;9.20;99.90;;;;;;5031479;28;20205;-78
2021/11/03 13:01:27;;;;;;;;;;;9.20;99.90;;;;;;5031989;28;20000;-78
2021/11/03 13:03:58;;;;;;;;;;;9.20;99.90;;;;;;5033035;28;20007;-80
2021/11/03 13:06:43;;;;;;;;;;;9.20;99.90;;;;;;5032042;28;19985;-78
2021/11/03 13:09:25;;;;;;;;;;;9.20;99.90;;;;;;5032759;28;20146;-78
2021/11/03 13:11:51;;;;;;;;;;;9.20;99.90;;;;;;5032702;28;19956;-78
2021/11/03 13:14:19;;;;;;;;;;;9.10;99.90;;;;;;5031177;28;19964;-78
2021/11/03 13:16:46;;;;;;;;;;;9.00;99.90;;;;;;5030935;28;19921;-78
2021/11/03 13:19:31;;;;;;;;;;;9.00;99.90;;;;;;5030749;28;19921;-78
2021/11/03 13:21:57;;;;;;;;;;;9.00;99.90;;;;;;5028911;28;19917;-79
2021/11/03 13:24:24;;;;;;;;;;;8.90;99.90;;;;;;5031707;28;19917;-78
2021/11/03 13:26:50;;;;;;;;;;;8.80;99.90;;;;;;5031621;28;20008;-77
2021/11/03 13:29:22;;;;;;;;;;;8.80;99.90;;;;;;5032761;28;19913;-78
2021/11/03 13:32:04;;;;;;;;;;;8.70;99.90;;;;;;5032052;28;19936;-78
2021/11/03 13:34:41;;;;;;;;;;;8.60;99.90;;;;;;5045253;28;19924;-78
2021/11/03 13:37:22;;;;;;;;;;;8.50;99.90;;;;;;5030968;28;20231;-78
2021/11/03 13:40:03;;;;;;;;;;;8.40;99.90;;;;;;5031036;28;19990;-78
2021/11/03 13:42:31;;;;;;;;;;;8.30;99.90;;;;;;5030206;28;19914;-77
2021/11/03 13:44:59;;;;;;;;;;;8.40;99.90;;;;;;5032532;28;19944;-76
2021/11/03 13:47:26;;;;;;;;;;;8.40;99.90;;;;;;5033205;28;19956;-78
2021/11/03 13:50:11;;;;;;;;;;;8.40;99.90;;;;;;5032302;28;19925;-77
2021/11/03 13:52:36;;;;;;;;;;;8.40;99.90;;;;;;5031567;28;19917;-76
2021/11/03 13:55:13;;;;;;;;;;;8.50;99.90;;;;;;5033571;28;19996;-79
2021/11/03 13:57:39;;;;;;;;;;;8.50;99.90;;;;;;5030335;28;19917;-79
2021/11/03 14:00:28;;;;;;;;;;;8.50;99.90;;;;;;5027841;28;19924;-79
2021/11/03 14:02:54;;;;;;;;;;;8.40;99.90;;;;;;5022699;28;19919;-79
2021/11/03 14:05:35;;;;;;;;;;;8.40;99.90;;;;;;5033163;28;19964;-79
2021/11/03 14:08:02;;;;;;;;;;;8.40;99.90;;;;;;5038765;28;19913;-79
2021/11/03 14:10:28;;;;;;;;;;;8.40;99.90;;;;;;5031508;28;19996;-78
2021/11/03 14:12:53;;;;;;;;;;;8.40;99.90;;;;;;5031797;28;20012;-79
2021/11/03 14:15:20;;;;;;;;;;;8.40;99.90;;;;;;5031479;28;19917;-79
2021/11/03 14:17:47;;;;;;;;;;;8.40;99.90;;;;;;5032193;28;19967;-78
2021/11/03 14:20:32;;;;;;;;;;;8.40;99.90;;;;;;5032454;28;21264;-79
2021/11/03 14:22:57;;;;;;;;;;;8.40;99.90;;;;;;5039350;28;20316;-78
2021/11/03 14:25:25;;;;;;;;;;;8.40;99.90;;;;;;5031288;28;19960;-79
2021/11/03 14:27:52;;;;;;;;;;;8.30;99.90;;;;;;5036395;28;20603;-79
2021/11/03 14:30:18;;;;;;;;;;;8.30;99.90;;;;;;5031012;28;19971;-78
2021/11/03 14:32:46;;;;;;;;;;;8.30;99.90;;;;;;5030249;28;19940;-77
2021/11/03 14:35:26;;;;;;;;;;;8.30;99.90;;;;;;5038848;28;19940;-78
2021/11/03 14:37:53;;;;;;;;;;;8.20;99.90;;;;;;5040067;28;19996;-78
2021/11/03 14:40:21;;;;;;;;;;;8.20;99.90;;;;;;5033040;28;20031;-78